sensor_id;sensor_type;location;lat;lon;timestamp;P1;durP1;ratioP1;P2;durP2;ratioP2
39728;SDS011;25402;42.004;23.088;2023-09-19T00:00:06;15.80;;;10.38;;
39728;SDS011;25402;42.004;23.088;2023-09-19T00:02:34;15.23;;;10.80;;
39728;SDS011;25402;42.004;23.088;2023-09-19T00:05:02;14.27;;;10.73;;
39728;SDS011;25402;42.004;23.088;2023-09-19T00:07:30;16.70;;;10.52;;
39728;SDS011;25402;42.004;23.088;2023-09-19T00:09:57;19.98;;;10.48;;
39728;SDS011;25402;42.004;23.088;2023-09-19T00:12:25;15.50;;;11.02;;
39728;SDS011;25402;42.004;23.088;2023-09-19T00:14:54;16.08;;;10.75;;
39728;SDS011;25402;42.004;23.088;2023-09-19T00:17:22;18.45;;;10.98;;
39728;SDS011;25402;42.004;23.088;2023-09-19T00:19:51;14.30;;;10.80;;
39728;SDS011;25402;42.004;23.088;2023-09-19T00:22:18;23.02;;;11.38;;
39728;SDS011;25402;42.004;23.088;2023-09-19T00:24:45;20.95;;;12.80;;
39728;SDS011;25402;42.004;23.088;2023-09-19T00:27:12;22.88;;;12.13;;
39728;SDS011;25402;42.004;23.088;2023-09-19T00:29:39;21.90;;;12.00;;
39728;SDS011;25402;42.004;23.088;2023-09-19T00:32:08;19.92;;;11.85;;
39728;SDS011;25402;42.004;23.088;2023-09-19T00:34:35;23.42;;;11.95;;
39728;SDS011;25402;42.004;23.088;2023-09-19T00:37:02;21.73;;;11.50;;
39728;SDS011;25402;42.004;23.088;2023-09-19T00:39:29;22.38;;;12.20;;
39728;SDS011;25402;42.004;23.088;2023-09-19T00:41:56;23.73;;;11.90;;
39728;SDS011;25402;42.004;23.088;2023-09-19T00:44:24;22.23;;;12.07;;
39728;SDS011;25402;42.004;23.088;2023-09-19T00:46:52;18.88;;;11.88;;
39728;SDS011;25402;42.004;23.088;2023-09-19T00:49:21;16.88;;;11.35;;
39728;SDS011;25402;42.004;23.088;2023-09-19T00:51:48;26.23;;;12.90;;
39728;SDS011;25402;42.004;23.088;2023-09-19T00:54:15;16.23;;;12.02;;
39728;SDS011;25402;42.004;23.088;2023-09-19T00:56:44;18.40;;;11.55;;
39728;SDS011;25402;42.004;23.088;2023-09-19T00:59:14;19.58;;;12.57;;
39728;SDS011;25402;42.004;23.088;2023-09-19T01:01:41;16.67;;;11.73;;
39728;SDS011;25402;42.004;23.088;2023-09-19T01:04:11;18.10;;;12.63;;
39728;SDS011;25402;42.004;23.088;2023-09-19T01:06:39;22.13;;;12.18;;
39728;SDS011;25402;42.004;23.088;2023-09-19T01:09:06;21.23;;;11.95;;
39728;SDS011;25402;42.004;23.088;2023-09-19T01:11:35;18.13;;;11.75;;
39728;SDS011;25402;42.004;23.088;2023-09-19T01:14:11;15.32;;;11.43;;
39728;SDS011;25402;42.004;23.088;2023-09-19T01:16:48;17.33;;;11.30;;
39728;SDS011;25402;42.004;23.088;2023-09-19T01:19:32;15.48;;;11.20;;
39728;SDS011;25402;42.004;23.088;2023-09-19T01:22:45;20.20;;;11.60;;
39728;SDS011;25402;42.004;23.088;2023-09-19T01:28:31;19.73;;;11.75;;
39728;SDS011;25402;42.004;23.088;2023-09-19T01:31:06;21.13;;;12.02;;
39728;SDS011;25402;42.004;23.088;2023-09-19T01:33:54;17.13;;;11.35;;
39728;SDS011;25402;42.004;23.088;2023-09-19T01:36:24;20.15;;;11.70;;
39728;SDS011;25402;42.004;23.088;2023-09-19T01:38:55;18.20;;;11.00;;
39728;SDS011;25402;42.004;23.088;2023-09-19T01:41:33;18.08;;;11.43;;
39728;SDS011;25402;42.004;23.088;2023-09-19T01:44:22;18.35;;;11.50;;
39728;SDS011;25402;42.004;23.088;2023-09-19T01:46:57;40.75;;;12.88;;
39728;SDS011;25402;42.004;23.088;2023-09-19T01:49:32;24.92;;;11.93;;
39728;SDS011;25402;42.004;23.088;2023-09-19T01:52:05;22.98;;;12.38;;
39728;SDS011;25402;42.004;23.088;2023-09-19T01:54:40;18.95;;;11.63;;
39728;SDS011;25402;42.004;23.088;2023-09-19T01:57:14;18.92;;;11.73;;
39728;SDS011;25402;42.004;23.088;2023-09-19T01:59:48;22.27;;;12.23;;
39728;SDS011;25402;42.004;23.088;2023-09-19T02:02:20;24.40;;;12.60;;
39728;SDS011;25402;42.004;23.088;2023-09-19T02:04:48;22.23;;;11.40;;
39728;SDS011;25402;42.004;23.088;2023-09-19T02:07:16;21.70;;;12.10;;
39728;SDS011;25402;42.004;23.088;2023-09-19T02:09:43;21.80;;;12.63;;
39728;SDS011;25402;42.004;23.088;2023-09-19T02:12:10;19.50;;;11.57;;
39728;SDS011;25402;42.004;23.088;2023-09-19T02:14:38;17.02;;;11.65;;
39728;SDS011;25402;42.004;23.088;2023-09-19T02:17:06;18.13;;;12.43;;
39728;SDS011;25402;42.004;23.088;2023-09-19T02:19:37;18.10;;;12.27;;
39728;SDS011;25402;42.004;23.088;2023-09-19T02:22:06;21.10;;;12.90;;
39728;SDS011;25402;42.004;23.088;2023-09-19T02:24:35;18.25;;;13.02;;
39728;SDS011;25402;42.004;23.088;2023-09-19T02:27:04;18.88;;;12.10;;
39728;SDS011;25402;42.004;23.088;2023-09-19T02:29:32;15.85;;;11.73;;
39728;SDS011;25402;42.004;23.088;2023-09-19T02:32:00;18.38;;;12.00;;
39728;SDS011;25402;42.004;23.088;2023-09-19T02:34:28;17.40;;;11.25;;
39728;SDS011;25402;42.004;23.088;2023-09-19T02:36:56;21.45;;;11.82;;
39728;SDS011;25402;42.004;23.088;2023-09-19T02:39:23;16.98;;;11.57;;
39728;SDS011;25402;42.004;23.088;2023-09-19T02:41:50;18.90;;;12.35;;
39728;SDS011;25402;42.004;23.088;2023-09-19T02:44:17;19.63;;;12.65;;
39728;SDS011;25402;42.004;23.088;2023-09-19T02:46:45;19.42;;;11.85;;
39728;SDS011;25402;42.004;23.088;2023-09-19T02:49:13;20.17;;;11.52;;
39728;SDS011;25402;42.004;23.088;2023-09-19T02:51:40;20.50;;;12.23;;
39728;SDS011;25402;42.004;23.088;2023-09-19T02:54:08;42.83;;;19.33;;
39728;SDS011;25402;42.004;23.088;2023-09-19T02:56:36;45.53;;;21.20;;
39728;SDS011;25402;42.004;23.088;2023-09-19T02:59:03;60.95;;;15.77;;
39728;SDS011;25402;42.004;23.088;2023-09-19T03:01:31;29.60;;;16.17;;
39728;SDS011;25402;42.004;23.088;2023-09-19T03:03:58;25.50;;;14.25;;
39728;SDS011;25402;42.004;23.088;2023-09-19T03:06:25;33.97;;;12.20;;
39728;SDS011;25402;42.004;23.088;2023-09-19T03:08:53;19.13;;;12.15;;
39728;SDS011;25402;42.004;23.088;2023-09-19T03:11:26;21.60;;;12.93;;
39728;SDS011;25402;42.004;23.088;2023-09-19T03:13:53;23.35;;;13.45;;
39728;SDS011;25402;42.004;23.088;2023-09-19T03:16:21;22.13;;;14.27;;
39728;SDS011;25402;42.004;23.088;2023-09-19T03:18:48;23.77;;;12.98;;
39728;SDS011;25402;42.004;23.088;2023-09-19T03:21:15;24.35;;;12.30;;
39728;SDS011;25402;42.004;23.088;2023-09-19T03:23:44;23.52;;;12.65;;
39728;SDS011;25402;42.004;23.088;2023-09-19T03:26:12;25.13;;;13.25;;
39728;SDS011;25402;42.004;23.088;2023-09-19T03:28:42;20.88;;;13.23;;
39728;SDS011;25402;42.004;23.088;2023-09-19T03:31:11;19.52;;;12.18;;
39728;SDS011;25402;42.004;23.088;2023-09-19T03:33:38;19.92;;;11.30;;
39728;SDS011;25402;42.004;23.088;2023-09-19T03:36:05;21.58;;;12.82;;
39728;SDS011;25402;42.004;23.088;2023-09-19T03:38:32;28.48;;;12.30;;
39728;SDS011;25402;42.004;23.088;2023-09-19T03:41:00;18.63;;;12.02;;
39728;SDS011;25402;42.004;23.088;2023-09-19T03:43:27;20.23;;;12.40;;
39728;SDS011;25402;42.004;23.088;2023-09-19T03:45:56;23.27;;;13.50;;
39728;SDS011;25402;42.004;23.088;2023-09-19T03:48:23;18.95;;;11.93;;
39728;SDS011;25402;42.004;23.088;2023-09-19T03:50:51;22.52;;;14.25;;
39728;SDS011;25402;42.004;23.088;2023-09-19T03:53:21;20.05;;;13.45;;
39728;SDS011;25402;42.004;23.088;2023-09-19T03:55:48;21.70;;;12.35;;
39728;SDS011;25402;42.004;23.088;2023-09-19T03:58:15;20.98;;;12.70;;
39728;SDS011;25402;42.004;23.088;2023-09-19T04:00:43;21.58;;;11.88;;
39728;SDS011;25402;42.004;23.088;2023-09-19T04:03:11;22.13;;;13.25;;
39728;SDS011;25402;42.004;23.088;2023-09-19T04:05:44;22.13;;;12.75;;
39728;SDS011;25402;42.004;23.088;2023-09-19T04:08:12;23.65;;;12.93;;
39728;SDS011;25402;42.004;23.088;2023-09-19T04:10:41;7.60;;;6.00;;
39728;SDS011;25402;42.004;23.088;2023-09-19T04:13:08;8.38;;;6.40;;
39728;SDS011;25402;42.004;23.088;2023-09-19T04:15:36;15.63;;;9.25;;
39728;SDS011;25402;42.004;23.088;2023-09-19T04:18:03;25.48;;;10.05;;
39728;SDS011;25402;42.004;23.088;2023-09-19T04:20:32;19.73;;;11.27;;
39728;SDS011;25402;42.004;23.088;2023-09-19T04:22:59;19.20;;;11.48;;
39728;SDS011;25402;42.004;23.088;2023-09-19T04:25:26;21.15;;;11.82;;
39728;SDS011;25402;42.004;23.088;2023-09-19T04:27:54;23.77;;;11.80;;
39728;SDS011;25402;42.004;23.088;2023-09-19T04:30:20;26.52;;;12.15;;
39728;SDS011;25402;42.004;23.088;2023-09-19T04:32:48;29.05;;;11.82;;
39728;SDS011;25402;42.004;23.088;2023-09-19T04:35:17;29.48;;;11.77;;
39728;SDS011;25402;42.004;23.088;2023-09-19T04:37:45;20.02;;;12.63;;
39728;SDS011;25402;42.004;23.088;2023-09-19T04:40:13;38.00;;;13.45;;
39728;SDS011;25402;42.004;23.088;2023-09-19T04:42:42;39.05;;;16.45;;
39728;SDS011;25402;42.004;23.088;2023-09-19T04:45:10;45.40;;;21.58;;
39728;SDS011;25402;42.004;23.088;2023-09-19T04:47:37;54.67;;;21.88;;
39728;SDS011;25402;42.004;23.088;2023-09-19T04:50:09;36.67;;;19.02;;
39728;SDS011;25402;42.004;23.088;2023-09-19T04:52:40;32.60;;;18.48;;
39728;SDS011;25402;42.004;23.088;2023-09-19T04:55:11;25.55;;;12.40;;
39728;SDS011;25402;42.004;23.088;2023-09-19T04:57:42;26.40;;;12.27;;
39728;SDS011;25402;42.004;23.088;2023-09-19T05:00:12;22.10;;;10.32;;
39728;SDS011;25402;42.004;23.088;2023-09-19T05:02:44;20.40;;;9.88;;
39728;SDS011;25402;42.004;23.088;2023-09-19T05:05:12;27.48;;;10.10;;
39728;SDS011;25402;42.004;23.088;2023-09-19T05:07:40;29.08;;;10.20;;
39728;SDS011;25402;42.004;23.088;2023-09-19T05:10:11;18.77;;;9.70;;
39728;SDS011;25402;42.004;23.088;2023-09-19T05:12:39;22.13;;;9.88;;
39728;SDS011;25402;42.004;23.088;2023-09-19T05:15:07;17.88;;;9.45;;
39728;SDS011;25402;42.004;23.088;2023-09-19T05:17:34;27.58;;;9.15;;
39728;SDS011;25402;42.004;23.088;2023-09-19T05:20:02;21.20;;;9.40;;
39728;SDS011;25402;42.004;23.088;2023-09-19T05:22:40;16.90;;;7.93;;
39728;SDS011;25402;42.004;23.088;2023-09-19T05:25:08;16.45;;;7.72;;
39728;SDS011;25402;42.004;23.088;2023-09-19T05:27:37;26.40;;;8.50;;
39728;SDS011;25402;42.004;23.088;2023-09-19T05:30:05;14.57;;;7.45;;
39728;SDS011;25402;42.004;23.088;2023-09-19T05:32:33;19.75;;;7.85;;
39728;SDS011;25402;42.004;23.088;2023-09-19T05:35:00;16.83;;;7.88;;
39728;SDS011;25402;42.004;23.088;2023-09-19T05:37:28;17.55;;;8.18;;
39728;SDS011;25402;42.004;23.088;2023-09-19T05:39:55;16.25;;;8.38;;
39728;SDS011;25402;42.004;23.088;2023-09-19T05:42:22;19.38;;;9.00;;
39728;SDS011;25402;42.004;23.088;2023-09-19T05:44:50;14.52;;;7.82;;
39728;SDS011;25402;42.004;23.088;2023-09-19T05:47:17;13.43;;;8.10;;
39728;SDS011;25402;42.004;23.088;2023-09-19T05:49:45;19.63;;;8.80;;
39728;SDS011;25402;42.004;23.088;2023-09-19T05:52:13;14.77;;;8.07;;
39728;SDS011;25402;42.004;23.088;2023-09-19T05:54:40;14.95;;;8.13;;
39728;SDS011;25402;42.004;23.088;2023-09-19T05:57:08;11.43;;;7.22;;
39728;SDS011;25402;42.004;23.088;2023-09-19T05:59:37;13.85;;;8.10;;
39728;SDS011;25402;42.004;23.088;2023-09-19T06:02:06;12.80;;;8.05;;
39728;SDS011;25402;42.004;23.088;2023-09-19T06:04:34;15.05;;;8.23;;
39728;SDS011;25402;42.004;23.088;2023-09-19T06:07:01;15.52;;;8.15;;
39728;SDS011;25402;42.004;23.088;2023-09-19T06:09:29;15.35;;;8.60;;
39728;SDS011;25402;42.004;23.088;2023-09-19T06:11:57;17.50;;;7.93;;
39728;SDS011;25402;42.004;23.088;2023-09-19T06:14:25;14.13;;;8.32;;
39728;SDS011;25402;42.004;23.088;2023-09-19T06:16:52;14.18;;;8.00;;
39728;SDS011;25402;42.004;23.088;2023-09-19T06:19:21;14.32;;;7.85;;
39728;SDS011;25402;42.004;23.088;2023-09-19T06:21:52;19.48;;;7.72;;
39728;SDS011;25402;42.004;23.088;2023-09-19T06:24:19;30.77;;;8.43;;
39728;SDS011;25402;42.004;23.088;2023-09-19T06:26:46;14.57;;;8.85;;
39728;SDS011;25402;42.004;23.088;2023-09-19T06:29:14;104.55;;;11.20;;
39728;SDS011;25402;42.004;23.088;2023-09-19T06:31:41;12.43;;;7.80;;
39728;SDS011;25402;42.004;23.088;2023-09-19T06:34:09;32.47;;;8.50;;
39728;SDS011;25402;42.004;23.088;2023-09-19T06:36:38;11.68;;;7.82;;
39728;SDS011;25402;42.004;23.088;2023-09-19T06:39:06;15.02;;;7.43;;
39728;SDS011;25402;42.004;23.088;2023-09-19T06:41:36;17.95;;;7.63;;
39728;SDS011;25402;42.004;23.088;2023-09-19T06:44:03;10.55;;;6.72;;
39728;SDS011;25402;42.004;23.088;2023-09-19T06:46:35;21.65;;;8.35;;
39728;SDS011;25402;42.004;23.088;2023-09-19T06:49:06;16.30;;;7.47;;
39728;SDS011;25402;42.004;23.088;2023-09-19T06:51:33;12.50;;;7.70;;
39728;SDS011;25402;42.004;23.088;2023-09-19T06:54:03;12.50;;;7.22;;
39728;SDS011;25402;42.004;23.088;2023-09-19T06:56:30;11.57;;;7.45;;
39728;SDS011;25402;42.004;23.088;2023-09-19T06:58:58;15.93;;;7.32;;
39728;SDS011;25402;42.004;23.088;2023-09-19T07:01:27;17.67;;;8.85;;
39728;SDS011;25402;42.004;23.088;2023-09-19T07:03:57;16.77;;;8.35;;
39728;SDS011;25402;42.004;23.088;2023-09-19T07:06:24;13.27;;;7.43;;
39728;SDS011;25402;42.004;23.088;2023-09-19T07:08:51;23.58;;;15.68;;
39728;SDS011;25402;42.004;23.088;2023-09-19T07:11:20;20.33;;;13.48;;
39728;SDS011;25402;42.004;23.088;2023-09-19T07:13:51;35.33;;;20.13;;
39728;SDS011;25402;42.004;23.088;2023-09-19T07:16:18;25.27;;;8.50;;
39728;SDS011;25402;42.004;23.088;2023-09-19T07:18:54;24.80;;;8.40;;
39728;SDS011;25402;42.004;23.088;2023-09-19T07:21:21;16.45;;;8.73;;
39728;SDS011;25402;42.004;23.088;2023-09-19T07:23:48;21.25;;;7.93;;
39728;SDS011;25402;42.004;23.088;2023-09-19T07:26:16;19.02;;;8.57;;
39728;SDS011;25402;42.004;23.088;2023-09-19T07:28:44;19.77;;;8.60;;
39728;SDS011;25402;42.004;23.088;2023-09-19T07:31:11;29.38;;;8.52;;
39728;SDS011;25402;42.004;23.088;2023-09-19T07:33:39;15.10;;;8.15;;
39728;SDS011;25402;42.004;23.088;2023-09-19T07:36:10;19.30;;;8.70;;
39728;SDS011;25402;42.004;23.088;2023-09-19T07:38:39;14.50;;;8.43;;
39728;SDS011;25402;42.004;23.088;2023-09-19T07:41:06;17.17;;;7.72;;
39728;SDS011;25402;42.004;23.088;2023-09-19T07:43:34;22.92;;;8.40;;
39728;SDS011;25402;42.004;23.088;2023-09-19T07:46:04;21.83;;;8.48;;
39728;SDS011;25402;42.004;23.088;2023-09-19T07:48:34;17.58;;;8.15;;
39728;SDS011;25402;42.004;23.088;2023-09-19T07:51:03;21.00;;;8.10;;
39728;SDS011;25402;42.004;23.088;2023-09-19T07:53:31;15.25;;;8.15;;
39728;SDS011;25402;42.004;23.088;2023-09-19T07:56:03;19.45;;;8.32;;
39728;SDS011;25402;42.004;23.088;2023-09-19T07:58:31;25.45;;;7.88;;
39728;SDS011;25402;42.004;23.088;2023-09-19T08:01:04;12.00;;;7.75;;
39728;SDS011;25402;42.004;23.088;2023-09-19T08:03:31;18.67;;;8.57;;
39728;SDS011;25402;42.004;23.088;2023-09-19T08:05:59;14.60;;;7.65;;
39728;SDS011;25402;42.004;23.088;2023-09-19T08:08:27;47.65;;;10.15;;
39728;SDS011;25402;42.004;23.088;2023-09-19T08:10:54;21.60;;;8.02;;
39728;SDS011;25402;42.004;23.088;2023-09-19T08:13:22;15.52;;;7.72;;
39728;SDS011;25402;42.004;23.088;2023-09-19T08:15:49;17.08;;;8.25;;
39728;SDS011;25402;42.004;23.088;2023-09-19T08:18:22;16.23;;;7.45;;
39728;SDS011;25402;42.004;23.088;2023-09-19T08:20:49;15.70;;;6.95;;
39728;SDS011;25402;42.004;23.088;2023-09-19T08:23:18;14.32;;;6.88;;
39728;SDS011;25402;42.004;23.088;2023-09-19T08:25:46;9.70;;;6.80;;
39728;SDS011;25402;42.004;23.088;2023-09-19T08:28:13;16.23;;;7.30;;
39728;SDS011;25402;42.004;23.088;2023-09-19T08:30:45;13.85;;;8.00;;
39728;SDS011;25402;42.004;23.088;2023-09-19T08:33:13;18.70;;;7.68;;
39728;SDS011;25402;42.004;23.088;2023-09-19T08:35:43;16.75;;;8.00;;
39728;SDS011;25402;42.004;23.088;2023-09-19T08:38:11;13.38;;;7.47;;
39728;SDS011;25402;42.004;23.088;2023-09-19T08:40:39;17.60;;;8.45;;
39728;SDS011;25402;42.004;23.088;2023-09-19T08:43:07;15.85;;;8.13;;
39728;SDS011;25402;42.004;23.088;2023-09-19T08:45:34;10.90;;;7.15;;
39728;SDS011;25402;42.004;23.088;2023-09-19T08:48:06;20.55;;;8.35;;
39728;SDS011;25402;42.004;23.088;2023-09-19T08:50:47;11.77;;;6.88;;
39728;SDS011;25402;42.004;23.088;2023-09-19T08:53:19;11.90;;;6.38;;
39728;SDS011;25402;42.004;23.088;2023-09-19T08:55:54;16.13;;;7.13;;
39728;SDS011;25402;42.004;23.088;2023-09-19T08:58:24;26.55;;;6.95;;
39728;SDS011;25402;42.004;23.088;2023-09-19T09:00:54;16.77;;;7.13;;
39728;SDS011;25402;42.004;23.088;2023-09-19T09:03:31;13.38;;;6.03;;
39728;SDS011;25402;42.004;23.088;2023-09-19T09:06:03;10.98;;;6.53;;
39728;SDS011;25402;42.004;23.088;2023-09-19T09:08:31;12.07;;;7.53;;
39728;SDS011;25402;42.004;23.088;2023-09-19T09:10:58;11.70;;;6.75;;
39728;SDS011;25402;42.004;23.088;2023-09-19T09:13:26;11.43;;;6.45;;
39728;SDS011;25402;42.004;23.088;2023-09-19T09:15:53;14.45;;;7.13;;
39728;SDS011;25402;42.004;23.088;2023-09-19T09:18:20;18.35;;;8.73;;
39728;SDS011;25402;42.004;23.088;2023-09-19T09:20:49;27.98;;;9.93;;
39728;SDS011;25402;42.004;23.088;2023-09-19T09:23:18;26.67;;;8.75;;
39728;SDS011;25402;42.004;23.088;2023-09-19T09:25:46;18.88;;;9.73;;
39728;SDS011;25402;42.004;23.088;2023-09-19T09:28:18;18.65;;;7.13;;
39728;SDS011;25402;42.004;23.088;2023-09-19T09:30:47;16.48;;;7.63;;
39728;SDS011;25402;42.004;23.088;2023-09-19T09:33:15;13.82;;;8.00;;
39728;SDS011;25402;42.004;23.088;2023-09-19T09:35:47;19.02;;;7.88;;
39728;SDS011;25402;42.004;23.088;2023-09-19T09:38:20;20.45;;;7.43;;
39728;SDS011;25402;42.004;23.088;2023-09-19T09:40:51;21.25;;;7.60;;
39728;SDS011;25402;42.004;23.088;2023-09-19T09:46:09;16.80;;;7.78;;
39728;SDS011;25402;42.004;23.088;2023-09-19T09:48:55;13.93;;;7.68;;
39728;SDS011;25402;42.004;23.088;2023-09-19T09:51:37;19.73;;;7.50;;
39728;SDS011;25402;42.004;23.088;2023-09-19T09:54:14;12.77;;;6.97;;
39728;SDS011;25402;42.004;23.088;2023-09-19T09:56:52;27.27;;;7.25;;
39728;SDS011;25402;42.004;23.088;2023-09-19T10:02:17;17.70;;;7.68;;
39728;SDS011;25402;42.004;23.088;2023-09-19T10:04:51;14.30;;;7.60;;
39728;SDS011;25402;42.004;23.088;2023-09-19T10:07:28;24.42;;;7.55;;
39728;SDS011;25402;42.004;23.088;2023-09-19T10:10:02;17.75;;;6.93;;
39728;SDS011;25402;42.004;23.088;2023-09-19T10:12:43;14.15;;;7.18;;
39728;SDS011;25402;42.004;23.088;2023-09-19T10:15:15;14.13;;;7.07;;
39728;SDS011;25402;42.004;23.088;2023-09-19T10:17:46;17.58;;;8.77;;
39728;SDS011;25402;42.004;23.088;2023-09-19T10:20:14;31.45;;;8.18;;
39728;SDS011;25402;42.004;23.088;2023-09-19T10:23:01;12.63;;;7.38;;
39728;SDS011;25402;42.004;23.088;2023-09-19T10:25:36;16.45;;;7.57;;
39728;SDS011;25402;42.004;23.088;2023-09-19T10:28:05;28.73;;;7.28;;
39728;SDS011;25402;42.004;23.088;2023-09-19T10:30:36;23.55;;;7.93;;
39728;SDS011;25402;42.004;23.088;2023-09-19T10:33:09;17.60;;;7.05;;
39728;SDS011;25402;42.004;23.088;2023-09-19T10:35:38;17.58;;;8.15;;
39728;SDS011;25402;42.004;23.088;2023-09-19T10:38:09;14.02;;;6.72;;
39728;SDS011;25402;42.004;23.088;2023-09-19T10:40:38;11.95;;;6.30;;
39728;SDS011;25402;42.004;23.088;2023-09-19T10:43:11;13.38;;;6.05;;
39728;SDS011;25402;42.004;23.088;2023-09-19T10:45:40;9.90;;;6.40;;
39728;SDS011;25402;42.004;23.088;2023-09-19T10:48:10;12.98;;;5.88;;
39728;SDS011;25402;42.004;23.088;2023-09-19T10:50:41;26.38;;;6.28;;
39728;SDS011;25402;42.004;23.088;2023-09-19T10:53:11;15.35;;;6.43;;
39728;SDS011;25402;42.004;23.088;2023-09-19T10:55:42;8.52;;;6.22;;
39728;SDS011;25402;42.004;23.088;2023-09-19T10:58:24;13.23;;;6.47;;
39728;SDS011;25402;42.004;23.088;2023-09-19T11:00:56;17.88;;;6.13;;
39728;SDS011;25402;42.004;23.088;2023-09-19T11:03:30;10.60;;;6.47;;
39728;SDS011;25402;42.004;23.088;2023-09-19T11:06:09;15.35;;;5.85;;
39728;SDS011;25402;42.004;23.088;2023-09-19T11:08:52;17.83;;;6.07;;
39728;SDS011;25402;42.004;23.088;2023-09-19T11:14:43;13.77;;;7.53;;
39728;SDS011;25402;42.004;23.088;2023-09-19T11:25:49;12.48;;;6.55;;
39728;SDS011;25402;42.004;23.088;2023-09-19T11:28:32;11.13;;;6.00;;
39728;SDS011;25402;42.004;23.088;2023-09-19T11:40:07;10.25;;;5.82;;
39728;SDS011;25402;42.004;23.088;2023-09-19T11:42:41;10.68;;;6.40;;
39728;SDS011;25402;42.004;23.088;2023-09-19T11:48:13;13.63;;;5.90;;
39728;SDS011;25402;42.004;23.088;2023-09-19T11:50:41;8.05;;;5.53;;
39728;SDS011;25402;42.004;23.088;2023-09-19T11:53:09;11.98;;;5.57;;
39728;SDS011;25402;42.004;23.088;2023-09-19T11:55:37;8.15;;;5.80;;
39728;SDS011;25402;42.004;23.088;2023-09-19T11:58:05;10.45;;;5.85;;
39728;SDS011;25402;42.004;23.088;2023-09-19T12:00:34;14.85;;;5.78;;
39728;SDS011;25402;42.004;23.088;2023-09-19T12:03:09;16.52;;;10.88;;
39728;SDS011;25402;42.004;23.088;2023-09-19T12:05:38;14.52;;;9.80;;
39728;SDS011;25402;42.004;23.088;2023-09-19T12:08:06;16.25;;;7.75;;
39728;SDS011;25402;42.004;23.088;2023-09-19T12:10:43;10.57;;;6.80;;
39728;SDS011;25402;42.004;23.088;2023-09-19T12:13:17;10.35;;;6.07;;
39728;SDS011;25402;42.004;23.088;2023-09-19T12:15:48;6.88;;;5.75;;
39728;SDS011;25402;42.004;23.088;2023-09-19T12:18:27;11.20;;;6.10;;
39728;SDS011;25402;42.004;23.088;2023-09-19T12:20:56;17.10;;;6.43;;
39728;SDS011;25402;42.004;23.088;2023-09-19T12:23:24;12.20;;;5.45;;
39728;SDS011;25402;42.004;23.088;2023-09-19T12:25:52;8.73;;;6.13;;
39728;SDS011;25402;42.004;23.088;2023-09-19T12:28:22;32.88;;;7.03;;
39728;SDS011;25402;42.004;23.088;2023-09-19T12:30:53;18.90;;;6.18;;
39728;SDS011;25402;42.004;23.088;2023-09-19T12:33:23;36.30;;;7.10;;
39728;SDS011;25402;42.004;23.088;2023-09-19T12:35:51;13.60;;;6.75;;
39728;SDS011;25402;42.004;23.088;2023-09-19T12:38:24;12.45;;;6.35;;
39728;SDS011;25402;42.004;23.088;2023-09-19T12:40:53;11.32;;;6.63;;
39728;SDS011;25402;42.004;23.088;2023-09-19T12:43:24;12.60;;;6.45;;
39728;SDS011;25402;42.004;23.088;2023-09-19T12:45:52;8.40;;;5.88;;
39728;SDS011;25402;42.004;23.088;2023-09-19T12:48:23;9.10;;;5.53;;
39728;SDS011;25402;42.004;23.088;2023-09-19T12:51:03;25.20;;;6.93;;
39728;SDS011;25402;42.004;23.088;2023-09-19T12:53:37;11.88;;;6.40;;
39728;SDS011;25402;42.004;23.088;2023-09-19T12:56:07;10.07;;;6.40;;
39728;SDS011;25402;42.004;23.088;2023-09-19T12:58:47;21.58;;;7.10;;
39728;SDS011;25402;42.004;23.088;2023-09-19T13:01:16;12.05;;;7.00;;
39728;SDS011;25402;42.004;23.088;2023-09-19T13:03:44;14.60;;;6.28;;
39728;SDS011;25402;42.004;23.088;2023-09-19T13:06:12;12.45;;;6.30;;
39728;SDS011;25402;42.004;23.088;2023-09-19T13:08:43;13.68;;;6.75;;
39728;SDS011;25402;42.004;23.088;2023-09-19T13:11:19;15.77;;;6.45;;
39728;SDS011;25402;42.004;23.088;2023-09-19T13:13:48;15.23;;;7.07;;
39728;SDS011;25402;42.004;23.088;2023-09-19T13:16:19;19.13;;;6.67;;
39728;SDS011;25402;42.004;23.088;2023-09-19T13:18:51;13.80;;;7.00;;
39728;SDS011;25402;42.004;23.088;2023-09-19T13:21:28;12.40;;;6.88;;
39728;SDS011;25402;42.004;23.088;2023-09-19T13:24:19;11.25;;;6.80;;
39728;SDS011;25402;42.004;23.088;2023-09-19T13:26:48;11.55;;;6.72;;
39728;SDS011;25402;42.004;23.088;2023-09-19T13:29:15;28.05;;;6.78;;
39728;SDS011;25402;42.004;23.088;2023-09-19T13:31:45;14.02;;;6.47;;
39728;SDS011;25402;42.004;23.088;2023-09-19T13:34:15;19.60;;;6.88;;
39728;SDS011;25402;42.004;23.088;2023-09-19T13:36:43;12.18;;;6.65;;
39728;SDS011;25402;42.004;23.088;2023-09-19T13:39:13;10.05;;;6.57;;
39728;SDS011;25402;42.004;23.088;2023-09-19T13:41:43;13.40;;;6.40;;
39728;SDS011;25402;42.004;23.088;2023-09-19T13:46:42;10.90;;;6.15;;
39728;SDS011;25402;42.004;23.088;2023-09-19T13:49:11;15.63;;;6.13;;
39728;SDS011;25402;42.004;23.088;2023-09-19T13:51:38;12.18;;;6.28;;
39728;SDS011;25402;42.004;23.088;2023-09-19T13:54:09;10.30;;;6.30;;
39728;SDS011;25402;42.004;23.088;2023-09-19T13:56:39;8.35;;;6.13;;
39728;SDS011;25402;42.004;23.088;2023-09-19T13:59:08;13.38;;;6.78;;
39728;SDS011;25402;42.004;23.088;2023-09-19T14:01:35;9.57;;;6.25;;
39728;SDS011;25402;42.004;23.088;2023-09-19T14:04:02;10.77;;;7.45;;
39728;SDS011;25402;42.004;23.088;2023-09-19T14:06:29;17.95;;;8.98;;
39728;SDS011;25402;42.004;23.088;2023-09-19T14:08:56;20.40;;;7.43;;
39728;SDS011;25402;42.004;23.088;2023-09-19T14:11:23;14.50;;;8.27;;
39728;SDS011;25402;42.004;23.088;2023-09-19T14:13:52;20.42;;;7.38;;
39728;SDS011;25402;42.004;23.088;2023-09-19T14:16:20;18.10;;;7.32;;
39728;SDS011;25402;42.004;23.088;2023-09-19T14:18:49;13.23;;;6.32;;
39728;SDS011;25402;42.004;23.088;2023-09-19T14:21:17;11.90;;;6.55;;
39728;SDS011;25402;42.004;23.088;2023-09-19T14:23:44;10.27;;;7.35;;
39728;SDS011;25402;42.004;23.088;2023-09-19T14:26:11;11.82;;;7.28;;
39728;SDS011;25402;42.004;23.088;2023-09-19T14:28:40;37.15;;;8.05;;
39728;SDS011;25402;42.004;23.088;2023-09-19T14:31:07;14.98;;;6.63;;
39728;SDS011;25402;42.004;23.088;2023-09-19T14:33:36;12.68;;;6.38;;
39728;SDS011;25402;42.004;23.088;2023-09-19T14:36:04;13.07;;;6.72;;
39728;SDS011;25402;42.004;23.088;2023-09-19T14:38:33;10.40;;;6.85;;
39728;SDS011;25402;42.004;23.088;2023-09-19T14:41:01;18.58;;;7.65;;
39728;SDS011;25402;42.004;23.088;2023-09-19T14:43:28;14.32;;;7.40;;
39728;SDS011;25402;42.004;23.088;2023-09-19T14:45:57;10.85;;;7.07;;
39728;SDS011;25402;42.004;23.088;2023-09-19T14:48:28;11.35;;;7.63;;
39728;SDS011;25402;42.004;23.088;2023-09-19T14:50:57;16.70;;;7.50;;
39728;SDS011;25402;42.004;23.088;2023-09-19T14:53:28;13.88;;;7.20;;
39728;SDS011;25402;42.004;23.088;2023-09-19T14:55:55;12.57;;;7.05;;
39728;SDS011;25402;42.004;23.088;2023-09-19T14:58:23;13.13;;;7.60;;
39728;SDS011;25402;42.004;23.088;2023-09-19T15:00:51;16.98;;;8.00;;
39728;SDS011;25402;42.004;23.088;2023-09-19T15:03:18;14.02;;;8.55;;
39728;SDS011;25402;42.004;23.088;2023-09-19T15:05:46;12.98;;;7.90;;
39728;SDS011;25402;42.004;23.088;2023-09-19T15:08:15;25.00;;;7.57;;